Weather at Sir Bani Yas Heliport

Public forecast

Using degrees Celsius for public forecast. Weather courtesy of forecast.io.

Closest aviation weather report (METAR) to Sir Bani Yas Heliport

Closest report is Hamad International Airport, 80.9 nm (149.9 km) NW.

2024/06/14 11:00 (retrieved 44 minutes ago)

OTHH 141100Z AUTO 14011KT CAVOK 43/09 Q0998 NOSIG

Closest aviation forecast (TAF) to Sir Bani Yas Heliport

Forecast is more than 12 hours old.

Closest forecast is Hamad International Airport, 80.9 nm (149.9 km) NW.

2024/06/12 06:00 (retrieved 2 days ago)

TAF OTHH 120506Z 1206/1312 22009KT CAVOK TEMPO 1206/1211 15009KT TEMPO 1212/1216 04009KT BECMG 1217/1219 33009KT